BAW606 OOMS-WSSS
Flight info
| Callsign | BAW606 |
|---|---|
| Flight time | N/A |
| Altitude | 35000 |
| Route | OOMS/26L N0501F350 DCT KUSRA DCT TOLDA DCT LOTAV M300 NITIX/N0495F370 M300 VASTU DCT ATETA M300 TOPIN/N0490F390 M300 BULVA DCT DUDEN DCT LUBUK DCT SALAX DCT ARAMA DCT TEBUN TEBU1B WSSS/20R |
| Aircraft | A349/H-V/N |
Departure
| Time | 2026-05-05 21:26 |
|---|---|
| Airport | Muscat International Airport (OOMS) |
Arrival
| Time | N/A |
|---|---|
| Airport | Singapore Changi Airport (WSSS) |
| Time | Latitude | Longitude | Altitude | Speed | Heading |
|---|---|---|---|---|---|
| 2026-05-05 21:09 | 23.60208 | 58.28557 | 47 ft | 0 kts | 130° |
| 2026-05-05 21:15 | 23.60216 | 58.28545 | 48 ft | 2 kts | 130° |
| 2026-05-05 21:15 | 23.60227 | 58.28532 | 48 ft | 2 kts | 130° |
| 2026-05-05 21:16 | 23.60237 | 58.28519 | 48 ft | 2 kts | 130° |
| 2026-05-05 21:16 | 23.60247 | 58.28507 | 48 ft | 2 kts | 130° |
| 2026-05-05 21:16 | 23.60258 | 58.28493 | 48 ft | 2 kts | 136° |
| 2026-05-05 21:16 | 23.60269 | 58.28483 | 48 ft | 2 kts | 144° |
| 2026-05-05 21:17 | 23.60284 | 58.28473 | 48 ft | 2 kts | 150° |
| 2026-05-05 21:17 | 23.60299 | 58.28464 | 48 ft | 2 kts | 158° |
| 2026-05-05 21:17 | 23.60316 | 58.28458 | 48 ft | 2 kts | 165° |
| 2026-05-05 21:17 | 23.60334 | 58.28455 | 48 ft | 2 kts | 172° |
| 2026-05-05 21:18 | 23.60350 | 58.28453 | 48 ft | 1 kts | 179° |
| 2026-05-05 21:18 | 23.60354 | 58.28453 | 48 ft | 0 kts | 180° |
| 2026-05-05 21:20 | 23.60335 | 58.28452 | 47 ft | 9 kts | 185° |
| 2026-05-05 21:20 | 23.60279 | 58.28411 | 48 ft | 11 kts | 249° |
| 2026-05-05 21:20 | 23.60310 | 58.28360 | 48 ft | 10 kts | 348° |
| 2026-05-05 21:20 | 23.60400 | 58.28347 | 47 ft | 12 kts | 353° |
| 2026-05-05 21:21 | 23.60502 | 58.28347 | 47 ft | 13 kts | 27° |
| 2026-05-05 21:21 | 23.60541 | 58.28451 | 47 ft | 14 kts | 81° |
| 2026-05-05 21:21 | 23.60557 | 58.28576 | 47 ft | 16 kts | 84° |
| 2026-05-05 21:21 | 23.60569 | 58.28721 | 47 ft | 17 kts | 86° |
| 2026-05-05 21:22 | 23.60579 | 58.28879 | 47 ft | 18 kts | 86° |
| 2026-05-05 21:22 | 23.60590 | 58.29042 | 47 ft | 19 kts | 85° |
| 2026-05-05 21:22 | 23.60601 | 58.29201 | 47 ft | 20 kts | 85° |
| 2026-05-05 21:22 | 23.60617 | 58.29361 | 47 ft | 21 kts | 84° |
| 2026-05-05 21:23 | 23.60632 | 58.29526 | 47 ft | 22 kts | 84° |
| 2026-05-05 21:23 | 23.60645 | 58.29658 | 47 ft | 10 kts | 73° |
| 2026-05-05 21:23 | 23.60702 | 58.29706 | 47 ft | 9 kts | 9° |
| 2026-05-05 21:23 | 23.60721 | 58.29707 | 47 ft | 0 kts | 0° |
| 2026-05-05 21:24 | 23.60760 | 58.29707 | 47 ft | 10 kts | 0° |
| 2026-05-05 21:25 | 23.60842 | 58.29700 | 47 ft | 12 kts | 340° |
| 2026-05-05 21:25 | 23.60893 | 58.29609 | 47 ft | 14 kts | 271° |
| 2026-05-05 21:25 | 23.60880 | 58.29413 | 47 ft | 49 kts | 264° |
| 2026-05-05 21:25 | 23.60822 | 58.28672 | 47 ft | 119 kts | 265° |
| 2026-05-05 21:26 | 23.60725 | 58.27514 | 48 ft | 169 kts | 265° |
| 2026-05-05 21:26 | 23.60618 | 58.26167 | 370 ft | 178 kts | 264° |
| 2026-05-05 21:26 | 23.60514 | 58.24817 | 782 ft | 180 kts | 264° |
| 2026-05-05 21:26 | 23.60407 | 58.23450 | 1225 ft | 183 kts | 263° |
| 2026-05-05 21:27 | 23.60300 | 58.22086 | 1675 ft | 184 kts | 262° |
| 2026-05-05 21:27 | 23.60184 | 58.20669 | 1934 ft | 190 kts | 262° |
| 2026-05-05 21:27 | 23.60062 | 58.19200 | 2118 ft | 199 kts | 262° |
| 2026-05-05 21:27 | 23.59935 | 58.17663 | 2311 ft | 210 kts | 261° |
| 2026-05-05 21:28 | 23.59801 | 58.16036 | 2518 ft | 221 kts | 262° |
| 2026-05-05 21:28 | 23.59643 | 58.14341 | 2723 ft | 233 kts | 257° |
| 2026-05-05 21:28 | 23.58886 | 58.12751 | 2871 ft | 243 kts | 217° |
| 2026-05-05 21:28 | 23.57336 | 58.12011 | 3115 ft | 253 kts | 181° |
| 2026-05-05 21:29 | 23.55629 | 58.12449 | 3462 ft | 262 kts | 149° |
| 2026-05-05 21:29 | 23.54077 | 58.13490 | 4021 ft | 264 kts | 150° |
| 2026-05-05 21:29 | 23.52454 | 58.14489 | 4609 ft | 267 kts | 151° |
| 2026-05-05 21:29 | 23.50824 | 58.15435 | 5163 ft | 270 kts | 152° |
| 2026-05-05 21:30 | 23.49150 | 58.16379 | 5729 ft | 273 kts | 152° |
| 2026-05-05 21:30 | 23.47455 | 58.17318 | 6306 ft | 275 kts | 152° |
| 2026-05-05 21:30 | 23.45740 | 58.18260 | 6867 ft | 278 kts | 153° |
| 2026-05-05 21:30 | 23.44002 | 58.19210 | 7387 ft | 283 kts | 153° |
| 2026-05-05 21:31 | 23.42226 | 58.20177 | 7925 ft | 287 kts | 153° |
| 2026-05-05 21:31 | 23.40435 | 58.21152 | 8467 ft | 291 kts | 153° |
| 2026-05-05 21:31 | 23.38595 | 58.22150 | 9010 ft | 295 kts | 154° |
| 2026-05-05 21:31 | 23.36769 | 58.23138 | 9516 ft | 300 kts | 154° |
| 2026-05-05 21:32 | 23.34866 | 58.24161 | 10042 ft | 304 kts | 153° |
| 2026-05-05 21:32 | 23.32947 | 58.25192 | 10408 ft | 314 kts | 153° |
| 2026-05-05 21:32 | 23.30952 | 58.26268 | 10656 ft | 329 kts | 153° |
| 2026-05-05 21:32 | 23.28863 | 58.27394 | 10923 ft | 341 kts | 152° |
| 2026-05-05 21:33 | 23.26714 | 58.28553 | 11393 ft | 347 kts | 152° |
| 2026-05-05 21:33 | 23.24554 | 58.29716 | 11974 ft | 348 kts | 152° |
| 2026-05-05 21:33 | 23.22379 | 58.30886 | 12515 ft | 350 kts | 151° |
| 2026-05-05 21:33 | 23.20166 | 58.32076 | 13034 ft | 353 kts | 150° |
| 2026-05-05 21:34 | 23.17975 | 58.33258 | 13546 ft | 356 kts | 150° |
| 2026-05-05 21:34 | 23.15745 | 58.34463 | 14070 ft | 358 kts | 151° |
| 2026-05-05 21:34 | 23.13493 | 58.35679 | 14428 ft | 367 kts | 151° |
| 2026-05-05 21:34 | 23.11157 | 58.36939 | 14651 ft | 380 kts | 151° |
| 2026-05-05 21:35 | 23.09402 | 58.37884 | 14814 ft | 390 kts | 151° |
| 2026-05-05 21:35 | 23.06918 | 58.39222 | 15040 ft | 403 kts | 151° |
| 2026-05-05 21:35 | 23.04378 | 58.40587 | 15315 ft | 414 kts | 152° |
| 2026-05-05 21:35 | 23.01749 | 58.41998 | 15822 ft | 418 kts | 152° |
| 2026-05-05 21:36 | 22.99133 | 58.43401 | 16397 ft | 420 kts | 152° |
| 2026-05-05 21:36 | 22.96508 | 58.44809 | 16941 ft | 423 kts | 152° |
| 2026-05-05 21:36 | 22.93868 | 58.46224 | 17453 ft | 426 kts | 152° |
| 2026-05-05 21:36 | 22.91196 | 58.47656 | 17963 ft | 429 kts | 152° |
| 2026-05-05 21:37 | 22.88524 | 58.49089 | 18438 ft | 432 kts | 152° |
| 2026-05-05 21:37 | 22.85831 | 58.50532 | 18876 ft | 436 kts | 152° |
| 2026-05-05 21:37 | 22.83085 | 58.52003 | 19310 ft | 440 kts | 152° |
| 2026-05-05 21:37 | 22.80323 | 58.53481 | 19739 ft | 444 kts | 153° |
| 2026-05-05 21:38 | 22.77548 | 58.54966 | 20141 ft | 448 kts | 153° |
| 2026-05-05 21:38 | 22.74714 | 58.56481 | 20555 ft | 452 kts | 153° |
| 2026-05-05 21:38 | 22.71917 | 58.57976 | 20974 ft | 455 kts | 153° |
| 2026-05-05 21:38 | 22.69084 | 58.59611 | 21378 ft | 458 kts | 148° |
| 2026-05-05 21:39 | 22.66472 | 58.61568 | 21799 ft | 461 kts | 141° |
| 2026-05-05 21:39 | 22.64078 | 58.63866 | 22195 ft | 463 kts | 134° |
| 2026-05-05 21:39 | 22.61851 | 58.66401 | 22591 ft | 466 kts | 132° |
| 2026-05-05 21:39 | 22.59646 | 58.68991 | 22989 ft | 469 kts | 132° |
| 2026-05-05 21:40 | 22.57442 | 58.71591 | 23382 ft | 471 kts | 132° |
| 2026-05-05 21:40 | 22.55224 | 58.74200 | 23762 ft | 474 kts | 132° |
| 2026-05-05 21:40 | 22.52987 | 58.76821 | 24118 ft | 478 kts | 132° |
| 2026-05-05 21:40 | 22.50727 | 58.79462 | 24480 ft | 481 kts | 132° |
| 2026-05-05 21:41 | 22.48443 | 58.82124 | 24844 ft | 483 kts | 133° |
| 2026-05-05 21:41 | 22.46133 | 58.84813 | 25197 ft | 486 kts | 133° |
| 2026-05-05 21:41 | 22.43836 | 58.87483 | 25540 ft | 489 kts | 133° |
| 2026-05-05 21:41 | 22.41525 | 58.90168 | 25881 ft | 492 kts | 133° |
| 2026-05-05 21:42 | 22.39190 | 58.92877 | 26236 ft | 495 kts | 133° |
| 2026-05-05 21:42 | 22.36823 | 58.95623 | 26584 ft | 497 kts | 133° |
| 2026-05-05 21:42 | 22.34474 | 58.98348 | 26903 ft | 500 kts | 133° |
| 2026-05-05 21:42 | 22.32096 | 59.01104 | 27231 ft | 503 kts | 133° |
| 2026-05-05 21:43 | 22.29722 | 59.03854 | 27562 ft | 505 kts | 133° |
| 2026-05-05 21:43 | 22.27314 | 59.06642 | 27887 ft | 507 kts | 133° |
| 2026-05-05 21:43 | 22.24902 | 59.09433 | 28192 ft | 510 kts | 133° |
| 2026-05-05 21:43 | 22.22470 | 59.12246 | 28489 ft | 513 kts | 133° |
| 2026-05-05 21:44 | 22.20029 | 59.15065 | 28772 ft | 516 kts | 133° |
| 2026-05-05 21:44 | 22.17607 | 59.17864 | 29059 ft | 518 kts | 133° |
| 2026-05-05 21:44 | 22.15123 | 59.20733 | 29410 ft | 518 kts | 133° |
| 2026-05-05 21:44 | 22.12675 | 59.23558 | 29841 ft | 517 kts | 133° |
| 2026-05-05 21:45 | 22.10230 | 59.26379 | 30268 ft | 515 kts | 133° |
| 2026-05-05 21:45 | 22.07793 | 59.29187 | 30679 ft | 514 kts | 133° |
| 2026-05-05 21:45 | 22.05371 | 59.31978 | 31082 ft | 512 kts | 133° |
| 2026-05-05 21:45 | 22.02923 | 59.34796 | 31468 ft | 512 kts | 133° |
| 2026-05-05 21:46 | 22.00503 | 59.37580 | 31838 ft | 511 kts | 133° |
| 2026-05-05 21:46 | 21.98084 | 59.40363 | 32198 ft | 510 kts | 133° |
| 2026-05-05 21:46 | 21.95668 | 59.43140 | 32558 ft | 509 kts | 133° |
| 2026-05-05 21:46 | 21.93255 | 59.45913 | 32955 ft | 508 kts | 133° |
| 2026-05-05 21:47 | 21.90850 | 59.48674 | 33368 ft | 507 kts | 133° |
| 2026-05-05 21:47 | 21.88412 | 59.51474 | 33723 ft | 507 kts | 133° |
| 2026-05-05 21:47 | 21.86011 | 59.54227 | 34021 ft | 508 kts | 133° |
| 2026-05-05 21:47 | 21.83585 | 59.57010 | 34318 ft | 509 kts | 133° |
| 2026-05-05 21:48 | 21.81166 | 59.59781 | 34613 ft | 509 kts | 133° |
| 2026-05-05 21:48 | 21.78755 | 59.62542 | 34814 ft | 510 kts | 133° |
| 2026-05-05 21:48 | 21.73910 | 59.68085 | 34815 ft | 511 kts | 134° |
| 2026-05-05 21:49 | 21.69052 | 59.73638 | 34813 ft | 511 kts | 134° |
| 2026-05-05 21:49 | 21.64163 | 59.79222 | 34811 ft | 510 kts | 133° |
| 2026-05-05 21:50 | 21.59318 | 59.84750 | 34814 ft | 510 kts | 133° |
| 2026-05-05 21:50 | 21.54479 | 59.90266 | 34813 ft | 510 kts | 133° |
| 2026-05-05 21:51 | 21.49612 | 59.95807 | 34811 ft | 510 kts | 133° |
| 2026-05-05 21:51 | 21.44722 | 60.01368 | 34815 ft | 510 kts | 133° |
| 2026-05-05 21:52 | 21.37436 | 60.09644 | 34815 ft | 510 kts | 133° |
| 2026-05-05 21:53 | 21.32581 | 60.15151 | 34817 ft | 509 kts | 133° |
| 2026-05-05 21:53 | 21.27724 | 60.20655 | 34818 ft | 508 kts | 133° |
| 2026-05-05 21:54 | 21.22841 | 60.26183 | 34818 ft | 509 kts | 133° |
| 2026-05-05 21:54 | 21.18001 | 60.31658 | 34818 ft | 509 kts | 133° |
| 2026-05-05 21:55 | 21.13131 | 60.37161 | 34819 ft | 509 kts | 133° |
| 2026-05-05 21:55 | 21.08261 | 60.42656 | 34820 ft | 509 kts | 133° |
| 2026-05-05 21:56 | 21.03382 | 60.48156 | 34822 ft | 509 kts | 133° |
| 2026-05-05 21:56 | 20.98526 | 60.53626 | 34823 ft | 508 kts | 133° |
| 2026-05-05 21:57 | 20.93669 | 60.59092 | 34823 ft | 508 kts | 133° |
| 2026-05-05 21:57 | 20.88802 | 60.64563 | 34824 ft | 508 kts | 133° |
| 2026-05-05 21:58 | 20.83925 | 60.70042 | 34826 ft | 507 kts | 133° |
| 2026-05-05 21:58 | 20.79080 | 60.75479 | 34820 ft | 507 kts | 133° |
| 2026-05-05 21:59 | 20.74227 | 60.80921 | 34817 ft | 507 kts | 133° |
| 2026-05-05 21:59 | 20.69354 | 60.86381 | 34816 ft | 507 kts | 133° |
| 2026-05-05 22:00 | 20.64514 | 60.91864 | 34817 ft | 507 kts | 131° |
| 2026-05-05 22:00 | 20.60139 | 60.97679 | 34820 ft | 506 kts | 125° |
| 2026-05-05 22:01 | 20.56260 | 61.03954 | 34822 ft | 507 kts | 122° |
| 2026-05-05 22:01 | 20.52504 | 61.10269 | 34823 ft | 506 kts | 122° |
| 2026-05-05 22:02 | 20.48715 | 61.16625 | 34823 ft | 505 kts | 122° |
| 2026-05-05 22:02 | 20.44945 | 61.22928 | 34824 ft | 505 kts | 122° |
| 2026-05-05 22:03 | 20.41194 | 61.29190 | 34824 ft | 504 kts | 122° |
| 2026-05-05 22:03 | 20.37412 | 61.35495 | 34823 ft | 504 kts | 122° |
| 2026-05-05 22:04 | 20.33636 | 61.41784 | 34822 ft | 504 kts | 122° |
| 2026-05-05 22:04 | 20.29870 | 61.48050 | 34823 ft | 505 kts | 122° |
| 2026-05-05 22:05 | 20.26089 | 61.54333 | 34822 ft | 504 kts | 122° |
| 2026-05-05 22:05 | 20.22299 | 61.60622 | 34824 ft | 504 kts | 122° |
| 2026-05-05 22:06 | 20.18531 | 61.66869 | 34830 ft | 504 kts | 122° |
| 2026-05-05 22:06 | 20.14757 | 61.73120 | 34835 ft | 503 kts | 122° |
| 2026-05-05 22:07 | 20.10971 | 61.79386 | 34834 ft | 503 kts | 122° |
| 2026-05-05 22:07 | 20.07208 | 61.85606 | 34835 ft | 503 kts | 122° |
| 2026-05-05 22:08 | 20.03419 | 61.91863 | 34840 ft | 502 kts | 122° |
| 2026-05-05 22:08 | 19.99619 | 61.98130 | 34851 ft | 502 kts | 122° |
| 2026-05-05 22:09 | 19.95841 | 62.04354 | 34853 ft | 502 kts | 122° |
| 2026-05-05 22:09 | 19.92068 | 62.10564 | 34845 ft | 502 kts | 122° |
| 2026-05-05 22:10 | 19.88273 | 62.16801 | 34844 ft | 502 kts | 122° |
| 2026-05-05 22:10 | 19.84500 | 62.23000 | 34843 ft | 502 kts | 122° |
| 2026-05-05 22:11 | 19.80698 | 62.29240 | 34844 ft | 503 kts | 122° |
| 2026-05-05 22:11 | 19.76917 | 62.35438 | 34844 ft | 503 kts | 122° |
| 2026-05-05 22:12 | 19.73117 | 62.41658 | 34843 ft | 503 kts | 122° |
| 2026-05-05 22:12 | 19.69326 | 62.47857 | 34845 ft | 503 kts | 122° |
| 2026-05-05 22:13 | 19.65526 | 62.54065 | 34843 ft | 502 kts | 122° |
| 2026-05-05 22:13 | 19.61716 | 62.60284 | 34846 ft | 502 kts | 122° |
| 2026-05-05 22:14 | 19.57907 | 62.66497 | 34843 ft | 502 kts | 122° |
| 2026-05-05 22:14 | 19.54095 | 62.72707 | 34842 ft | 502 kts | 122° |
| 2026-05-05 22:15 | 19.50306 | 62.78872 | 34836 ft | 503 kts | 122° |
| 2026-05-05 22:15 | 19.46474 | 62.85099 | 34838 ft | 503 kts | 122° |
| 2026-05-05 22:16 | 19.42651 | 62.91307 | 34843 ft | 504 kts | 122° |
| 2026-05-05 22:16 | 19.38839 | 62.97491 | 34846 ft | 503 kts | 122° |
| 2026-05-05 22:17 | 19.35016 | 63.03687 | 34850 ft | 502 kts | 122° |
| 2026-05-05 22:17 | 19.31202 | 63.09864 | 34851 ft | 503 kts | 122° |
| 2026-05-05 22:18 | 19.27379 | 63.16052 | 34853 ft | 503 kts | 122° |
| 2026-05-05 22:18 | 19.23547 | 63.22243 | 34850 ft | 503 kts | 122° |
| 2026-05-05 22:19 | 19.19728 | 63.28407 | 34848 ft | 504 kts | 122° |
| 2026-05-05 22:19 | 19.15884 | 63.34605 | 34845 ft | 503 kts | 122° |
| 2026-05-05 22:20 | 19.12047 | 63.40789 | 34843 ft | 504 kts | 122° |
| 2026-05-05 22:20 | 19.08211 | 63.46965 | 34845 ft | 504 kts | 122° |
| 2026-05-05 22:21 | 19.04368 | 63.53149 | 34844 ft | 504 kts | 122° |
| 2026-05-05 22:21 | 19.00534 | 63.59309 | 34845 ft | 504 kts | 122° |
| 2026-05-05 22:22 | 18.96691 | 63.65467 | 34841 ft | 504 kts | 123° |
| 2026-05-05 22:22 | 18.92820 | 63.71663 | 34832 ft | 503 kts | 123° |
| 2026-05-05 22:23 | 18.88980 | 63.77810 | 34833 ft | 503 kts | 122° |
| 2026-05-05 22:23 | 18.85138 | 63.83960 | 34843 ft | 503 kts | 123° |
| 2026-05-05 22:24 | 18.81284 | 63.90125 | 34843 ft | 503 kts | 123° |
| 2026-05-05 22:24 | 18.77442 | 63.96263 | 34845 ft | 504 kts | 123° |
| 2026-05-05 22:25 | 18.73584 | 64.02418 | 34843 ft | 504 kts | 123° |
| 2026-05-05 22:25 | 18.69721 | 64.08577 | 34845 ft | 504 kts | 123° |
| 2026-05-05 22:26 | 18.65869 | 64.14709 | 34846 ft | 503 kts | 123° |
| 2026-05-05 22:26 | 18.61997 | 64.20872 | 34850 ft | 503 kts | 123° |
| 2026-05-05 22:27 | 18.58130 | 64.27019 | 34851 ft | 503 kts | 123° |
| 2026-05-05 22:27 | 18.54268 | 64.33151 | 34857 ft | 503 kts | 123° |
| 2026-05-05 22:28 | 18.50417 | 64.39261 | 34862 ft | 504 kts | 123° |
| 2026-05-05 22:28 | 18.46537 | 64.45410 | 34863 ft | 504 kts | 123° |
| 2026-05-05 22:29 | 18.42654 | 64.51560 | 34864 ft | 504 kts | 123° |
| 2026-05-05 22:29 | 18.38783 | 64.57683 | 34864 ft | 504 kts | 123° |
| 2026-05-05 22:30 | 18.34896 | 64.63826 | 34863 ft | 504 kts | 123° |
| 2026-05-05 22:30 | 18.31031 | 64.69929 | 34865 ft | 504 kts | 123° |
| 2026-05-05 22:31 | 18.27147 | 64.76055 | 34862 ft | 505 kts | 123° |
| 2026-05-05 22:31 | 18.23240 | 64.82215 | 34866 ft | 504 kts | 123° |
| 2026-05-05 22:32 | 18.19355 | 64.88332 | 34865 ft | 505 kts | 123° |
| 2026-05-05 22:32 | 18.15468 | 64.94443 | 34863 ft | 504 kts | 123° |
| 2026-05-05 22:33 | 18.11577 | 65.00556 | 34865 ft | 504 kts | 123° |
| 2026-05-05 22:33 | 18.07677 | 65.06681 | 34862 ft | 504 kts | 123° |
| 2026-05-05 22:34 | 18.03783 | 65.12791 | 34864 ft | 505 kts | 123° |
| 2026-05-05 22:34 | 17.99866 | 65.18928 | 34862 ft | 505 kts | 123° |
| 2026-05-05 22:35 | 17.95967 | 65.25033 | 34864 ft | 506 kts | 123° |
| 2026-05-05 22:35 | 17.92040 | 65.31176 | 34863 ft | 505 kts | 123° |
| 2026-05-05 22:36 | 17.88142 | 65.37267 | 34862 ft | 504 kts | 123° |
| 2026-05-05 22:36 | 17.84243 | 65.43355 | 34864 ft | 504 kts | 123° |
| 2026-05-05 22:37 | 17.80341 | 65.49442 | 34863 ft | 504 kts | 123° |
| 2026-05-05 22:37 | 17.76413 | 65.55564 | 34863 ft | 504 kts | 123° |
| 2026-05-05 22:38 | 17.72521 | 65.61627 | 34865 ft | 504 kts | 123° |
| 2026-05-05 22:38 | 17.68620 | 65.67702 | 34863 ft | 504 kts | 124° |
| 2026-05-05 22:39 | 17.64689 | 65.73817 | 34864 ft | 505 kts | 124° |
| 2026-05-05 22:39 | 17.60780 | 65.79909 | 34864 ft | 505 kts | 123° |
| 2026-05-05 22:40 | 17.56968 | 65.86075 | 34865 ft | 504 kts | 122° |
| 2026-05-05 22:40 | 17.53188 | 65.92226 | 34864 ft | 503 kts | 122° |
| 2026-05-05 22:41 | 17.49413 | 65.98354 | 34864 ft | 503 kts | 122° |
| 2026-05-05 22:41 | 17.45614 | 66.04508 | 34864 ft | 502 kts | 122° |
| 2026-05-05 22:42 | 17.41814 | 66.10653 | 34862 ft | 503 kts | 122° |
| 2026-05-05 22:42 | 17.38017 | 66.16789 | 34862 ft | 503 kts | 122° |
| 2026-05-05 22:43 | 17.34218 | 66.22922 | 34864 ft | 502 kts | 122° |
| 2026-05-05 22:43 | 17.30428 | 66.29034 | 34864 ft | 503 kts | 122° |
| 2026-05-05 22:44 | 17.26617 | 66.35175 | 34865 ft | 503 kts | 122° |
| 2026-05-05 22:44 | 17.22829 | 66.41269 | 34864 ft | 503 kts | 122° |
| 2026-05-05 22:45 | 17.19019 | 66.47394 | 34864 ft | 503 kts | 122° |
| 2026-05-05 22:45 | 17.15198 | 66.53535 | 34865 ft | 502 kts | 122° |
| 2026-05-05 22:46 | 17.11388 | 66.59652 | 34866 ft | 502 kts | 122° |
| 2026-05-05 22:46 | 17.07601 | 66.65727 | 34862 ft | 502 kts | 122° |
| 2026-05-05 22:47 | 17.03775 | 66.71859 | 34863 ft | 502 kts | 123° |
| 2026-05-05 22:47 | 16.99978 | 66.77938 | 34867 ft | 502 kts | 123° |
| 2026-05-05 22:48 | 16.96149 | 66.84061 | 34863 ft | 503 kts | 123° |
| 2026-05-05 22:48 | 16.92326 | 66.90170 | 34864 ft | 503 kts | 122° |
| 2026-05-05 22:49 | 16.88499 | 66.96279 | 34864 ft | 503 kts | 122° |
| 2026-05-05 22:49 | 16.84695 | 67.02351 | 34864 ft | 502 kts | 122° |
| 2026-05-05 22:50 | 16.80878 | 67.08437 | 34862 ft | 502 kts | 122° |
| 2026-05-05 22:50 | 16.77051 | 67.14532 | 34864 ft | 501 kts | 122° |
| 2026-05-05 22:51 | 16.73240 | 67.20593 | 34864 ft | 502 kts | 122° |
| 2026-05-05 22:51 | 16.69420 | 67.26669 | 34861 ft | 502 kts | 122° |
| 2026-05-05 22:52 | 16.65591 | 67.32752 | 34863 ft | 502 kts | 122° |
| 2026-05-05 22:52 | 16.61776 | 67.38808 | 34864 ft | 502 kts | 122° |
| 2026-05-05 22:53 | 16.57938 | 67.44895 | 34863 ft | 501 kts | 122° |
| 2026-05-05 22:53 | 16.54122 | 67.50944 | 34862 ft | 501 kts | 122° |
| 2026-05-05 22:54 | 16.50303 | 67.56988 | 34863 ft | 501 kts | 122° |
| 2026-05-05 22:54 | 16.46460 | 67.63068 | 34864 ft | 501 kts | 122° |
| 2026-05-05 22:55 | 16.42647 | 67.69096 | 34863 ft | 500 kts | 123° |
| 2026-05-05 22:55 | 16.38830 | 67.75127 | 34863 ft | 500 kts | 123° |
| 2026-05-05 22:56 | 16.34991 | 67.81189 | 34857 ft | 500 kts | 123° |
| 2026-05-05 22:56 | 16.31176 | 67.87208 | 34850 ft | 500 kts | 123° |
| 2026-05-05 22:57 | 16.27341 | 67.93252 | 34848 ft | 500 kts | 123° |
| 2026-05-05 22:57 | 16.23535 | 67.99271 | 34845 ft | 500 kts | 122° |
| 2026-05-05 22:58 | 16.19728 | 68.05321 | 34843 ft | 500 kts | 122° |
| 2026-05-05 22:58 | 16.15939 | 68.11343 | 34847 ft | 499 kts | 122° |
| 2026-05-05 22:59 | 16.12126 | 68.17395 | 34854 ft | 498 kts | 122° |
| 2026-05-05 22:59 | 16.08344 | 68.23392 | 34857 ft | 498 kts | 122° |
| 2026-05-05 23:00 | 16.02646 | 68.32417 | 34862 ft | 498 kts | 122° |
| 2026-05-05 23:00 | 15.98856 | 68.38417 | 34863 ft | 499 kts | 122° |
| 2026-05-05 23:01 | 15.95035 | 68.44460 | 34863 ft | 499 kts | 122° |
| 2026-05-05 23:01 | 15.91243 | 68.50454 | 34864 ft | 498 kts | 122° |
| 2026-05-05 23:02 | 15.87438 | 68.56461 | 34863 ft | 498 kts | 122° |
| 2026-05-05 23:02 | 15.83635 | 68.62458 | 34863 ft | 498 kts | 122° |
| 2026-05-05 23:03 | 15.79821 | 68.68467 | 34865 ft | 498 kts | 122° |
| 2026-05-05 23:03 | 15.76027 | 68.74445 | 34865 ft | 498 kts | 123° |
| 2026-05-05 23:04 | 15.72216 | 68.80444 | 34861 ft | 497 kts | 123° |
| 2026-05-05 23:04 | 15.68434 | 68.86391 | 34865 ft | 497 kts | 123° |
| 2026-05-05 23:05 | 15.64620 | 68.92383 | 34865 ft | 497 kts | 123° |
| 2026-05-05 23:05 | 15.60796 | 68.98383 | 34863 ft | 497 kts | 123° |
| 2026-05-05 23:06 | 15.56991 | 69.04350 | 34865 ft | 497 kts | 122° |
| 2026-05-05 23:06 | 15.53187 | 69.10317 | 34865 ft | 495 kts | 122° |
| 2026-05-05 23:07 | 15.49418 | 69.16221 | 34865 ft | 494 kts | 123° |
| 2026-05-05 23:07 | 15.45631 | 69.22150 | 34862 ft | 494 kts | 123° |
| 2026-05-05 23:08 | 15.41820 | 69.28108 | 34861 ft | 494 kts | 123° |
| 2026-05-05 23:08 | 15.38044 | 69.34007 | 34859 ft | 494 kts | 123° |
| 2026-05-05 23:09 | 15.34246 | 69.39936 | 34859 ft | 494 kts | 122° |
| 2026-05-05 23:09 | 15.30443 | 69.45873 | 34858 ft | 494 kts | 122° |
| 2026-05-05 23:10 | 15.26669 | 69.51756 | 34855 ft | 493 kts | 122° |
| 2026-05-05 23:10 | 15.22872 | 69.57677 | 34849 ft | 493 kts | 123° |
| 2026-05-05 23:11 | 15.19091 | 69.63566 | 34979 ft | 495 kts | 123° |
| 2026-05-05 23:11 | 15.17191 | 69.66524 | 35374 ft | 493 kts | 123° |
| 2026-05-05 23:11 | 15.15288 | 69.69486 | 35826 ft | 490 kts | 123° |
| 2026-05-05 23:12 | 15.13411 | 69.72405 | 36209 ft | 488 kts | 123° |
| 2026-05-05 23:12 | 15.11542 | 69.75311 | 36520 ft | 487 kts | 123° |
| 2026-05-05 23:12 | 15.09681 | 69.78223 | 36779 ft | 486 kts | 123° |
| 2026-05-05 23:12 | 15.07834 | 69.81130 | 36839 ft | 487 kts | 122° |
| 2026-05-05 23:13 | 15.04120 | 69.86983 | 36844 ft | 486 kts | 122° |
| 2026-05-05 23:13 | 15.00398 | 69.92847 | 36844 ft | 486 kts | 122° |
| 2026-05-05 23:14 | 14.96704 | 69.98663 | 36845 ft | 485 kts | 122° |
| 2026-05-05 23:14 | 14.93010 | 70.04474 | 36844 ft | 486 kts | 123° |
| 2026-05-05 23:15 | 14.89302 | 70.10300 | 36846 ft | 486 kts | 123° |
| 2026-05-05 23:15 | 14.85588 | 70.16130 | 36851 ft | 486 kts | 123° |
| 2026-05-05 23:16 | 14.81868 | 70.21966 | 36858 ft | 486 kts | 123° |
| 2026-05-05 23:16 | 14.78140 | 70.27810 | 36857 ft | 487 kts | 122° |
| 2026-05-05 23:17 | 14.74419 | 70.33639 | 36859 ft | 488 kts | 122° |
| 2026-05-05 23:17 | 14.70700 | 70.39465 | 36862 ft | 488 kts | 123° |
| 2026-05-05 23:18 | 14.66970 | 70.45301 | 36866 ft | 487 kts | 123° |
| 2026-05-05 23:18 | 14.63241 | 70.51130 | 36864 ft | 487 kts | 123° |
| 2026-05-05 23:19 | 14.59501 | 70.56971 | 36865 ft | 487 kts | 123° |
| 2026-05-05 23:19 | 14.55769 | 70.62797 | 36861 ft | 488 kts | 123° |
| 2026-05-05 23:20 | 14.52022 | 70.68643 | 36858 ft | 488 kts | 123° |
| 2026-05-05 23:20 | 14.48279 | 70.74482 | 36854 ft | 488 kts | 123° |
| 2026-05-05 23:21 | 14.44540 | 70.80308 | 36851 ft | 488 kts | 123° |
| 2026-05-05 23:21 | 14.40792 | 70.86146 | 36848 ft | 488 kts | 123° |
| 2026-05-05 23:22 | 14.37068 | 70.91944 | 36848 ft | 489 kts | 123° |
| 2026-05-05 23:22 | 14.33304 | 70.97819 | 36846 ft | 489 kts | 123° |
| 2026-05-05 23:23 | 14.29605 | 71.03673 | 36843 ft | 490 kts | 123° |
| 2026-05-05 23:23 | 14.25903 | 71.09537 | 36843 ft | 490 kts | 123° |
| 2026-05-05 23:24 | 14.22183 | 71.15421 | 36842 ft | 490 kts | 123° |
| 2026-05-05 23:24 | 14.18446 | 71.21326 | 36843 ft | 491 kts | 123° |
| 2026-05-05 23:25 | 14.14719 | 71.27211 | 36839 ft | 491 kts | 123° |
| 2026-05-05 23:25 | 14.11010 | 71.33064 | 36844 ft | 492 kts | 123° |
| 2026-05-05 23:26 | 14.07254 | 71.38985 | 36841 ft | 492 kts | 123° |
| 2026-05-05 23:26 | 14.03512 | 71.44880 | 36842 ft | 493 kts | 123° |
| 2026-05-05 23:27 | 13.99758 | 71.50793 | 36841 ft | 494 kts | 123° |
| 2026-05-05 23:27 | 13.96019 | 71.56677 | 36842 ft | 493 kts | 123° |
| 2026-05-05 23:28 | 13.92265 | 71.62581 | 36842 ft | 493 kts | 123° |
| 2026-05-05 23:28 | 13.88522 | 71.68462 | 36840 ft | 493 kts | 123° |
| 2026-05-05 23:29 | 13.84763 | 71.74367 | 36842 ft | 494 kts | 123° |
| 2026-05-05 23:29 | 13.81005 | 71.80264 | 36841 ft | 494 kts | 123° |
| 2026-05-05 23:30 | 13.77250 | 71.86156 | 36840 ft | 493 kts | 123° |
| 2026-05-05 23:30 | 13.73487 | 71.92059 | 36841 ft | 493 kts | 123° |
| 2026-05-05 23:31 | 13.69736 | 71.97937 | 36845 ft | 493 kts | 123° |
| 2026-05-05 23:31 | 13.66201 | 72.03976 | 36841 ft | 493 kts | 120° |
| 2026-05-05 23:32 | 13.62850 | 72.10094 | 36842 ft | 492 kts | 120° |
| 2026-05-05 23:32 | 13.59504 | 72.16218 | 36846 ft | 492 kts | 120° |
| 2026-05-05 23:33 | 13.56153 | 72.22334 | 36850 ft | 491 kts | 119° |
| 2026-05-05 23:33 | 13.52814 | 72.28410 | 36852 ft | 490 kts | 119° |
| 2026-05-05 23:34 | 13.49464 | 72.34502 | 36852 ft | 487 kts | 119° |
| 2026-05-05 23:34 | 13.46148 | 72.40531 | 36849 ft | 487 kts | 119° |
| 2026-05-05 23:35 | 13.42816 | 72.46586 | 36846 ft | 486 kts | 119° |
| 2026-05-05 23:35 | 13.39483 | 72.52637 | 36849 ft | 487 kts | 119° |
| 2026-05-05 23:36 | 13.36164 | 72.58653 | 36843 ft | 486 kts | 119° |
| 2026-05-05 23:36 | 13.32845 | 72.64662 | 36843 ft | 485 kts | 119° |
| 2026-05-05 23:37 | 13.29518 | 72.70688 | 36845 ft | 484 kts | 119° |
| 2026-05-05 23:37 | 13.26196 | 72.76703 | 36844 ft | 484 kts | 119° |
| 2026-05-05 23:38 | 13.22895 | 72.82676 | 36845 ft | 485 kts | 119° |
| 2026-05-05 23:38 | 13.19572 | 72.88683 | 36846 ft | 485 kts | 119° |
| 2026-05-05 23:39 | 13.16250 | 72.94679 | 36846 ft | 484 kts | 119° |
| 2026-05-05 23:39 | 13.12937 | 73.00655 | 36844 ft | 482 kts | 119° |
| 2026-05-05 23:40 | 13.09609 | 73.06657 | 36847 ft | 482 kts | 119° |
| 2026-05-05 23:40 | 13.06303 | 73.12616 | 36843 ft | 481 kts | 119° |
| 2026-05-05 23:41 | 13.03008 | 73.18552 | 36845 ft | 481 kts | 119° |
| 2026-05-05 23:41 | 12.99707 | 73.24495 | 36840 ft | 482 kts | 119° |
| 2026-05-05 23:42 | 12.96376 | 73.30485 | 36840 ft | 483 kts | 119° |
| 2026-05-05 23:42 | 12.93064 | 73.36436 | 36837 ft | 483 kts | 119° |
| 2026-05-05 23:43 | 12.89739 | 73.42410 | 36836 ft | 482 kts | 119° |
| 2026-05-05 23:43 | 12.86420 | 73.48370 | 36837 ft | 482 kts | 119° |
| 2026-05-05 23:44 | 12.83098 | 73.54330 | 36834 ft | 482 kts | 119° |
| 2026-05-05 23:44 | 12.79781 | 73.60278 | 36832 ft | 482 kts | 119° |
| 2026-05-05 23:45 | 12.76456 | 73.66233 | 36831 ft | 481 kts | 119° |
| 2026-05-05 23:45 | 12.73150 | 73.72154 | 36828 ft | 482 kts | 119° |
| 2026-05-05 23:46 | 12.69835 | 73.78085 | 36824 ft | 481 kts | 119° |
| 2026-05-05 23:46 | 12.66514 | 73.84026 | 36825 ft | 482 kts | 119° |
| 2026-05-05 23:47 | 12.63186 | 73.89978 | 36824 ft | 482 kts | 119° |
| 2026-05-05 23:47 | 12.59851 | 73.95940 | 36825 ft | 482 kts | 119° |
| 2026-05-05 23:48 | 12.56524 | 74.01874 | 36826 ft | 482 kts | 120° |
| 2026-05-05 23:48 | 12.53178 | 74.07825 | 36834 ft | 481 kts | 120° |
| 2026-05-05 23:49 | 12.49856 | 74.13734 | 36841 ft | 482 kts | 119° |
| 2026-05-05 23:49 | 12.46524 | 74.19664 | 36843 ft | 482 kts | 119° |
| 2026-05-05 23:50 | 12.43173 | 74.25627 | 36840 ft | 483 kts | 119° |
| 2026-05-05 23:50 | 12.39839 | 74.31557 | 36840 ft | 483 kts | 119° |
| 2026-05-05 23:51 | 12.36497 | 74.37498 | 36838 ft | 483 kts | 119° |
| 2026-05-05 23:51 | 12.33136 | 74.43468 | 36837 ft | 483 kts | 119° |
| 2026-05-05 23:52 | 12.29792 | 74.49405 | 36837 ft | 482 kts | 119° |
| 2026-05-05 23:52 | 12.26451 | 74.55331 | 36834 ft | 482 kts | 119° |
| 2026-05-05 23:53 | 12.23112 | 74.61250 | 36833 ft | 482 kts | 119° |
| 2026-05-05 23:53 | 12.19759 | 74.67190 | 36829 ft | 483 kts | 119° |
| 2026-05-05 23:54 | 12.16401 | 74.73135 | 36825 ft | 484 kts | 119° |
| 2026-05-05 23:54 | 12.13041 | 74.79081 | 36825 ft | 485 kts | 119° |
| 2026-05-05 23:55 | 12.09679 | 74.85027 | 36824 ft | 484 kts | 119° |
| 2026-05-05 23:55 | 12.06305 | 74.90989 | 36824 ft | 484 kts | 119° |
| 2026-05-05 23:56 | 12.02955 | 74.96906 | 36822 ft | 483 kts | 119° |
| 2026-05-05 23:56 | 11.99580 | 75.02862 | 36823 ft | 484 kts | 119° |
| 2026-05-05 23:57 | 11.96211 | 75.08806 | 36825 ft | 484 kts | 119° |
| 2026-05-05 23:57 | 11.92839 | 75.14751 | 36832 ft | 484 kts | 119° |
| 2026-05-05 23:58 | 11.89486 | 75.20657 | 36837 ft | 484 kts | 119° |
| 2026-05-05 23:58 | 11.86102 | 75.26615 | 36840 ft | 483 kts | 119° |
| 2026-05-05 23:59 | 11.82737 | 75.32536 | 36841 ft | 483 kts | 119° |
| 2026-05-05 23:59 | 11.79382 | 75.38438 | 36844 ft | 483 kts | 120° |
| 2026-05-06 00:00 | 11.76019 | 75.44350 | 36847 ft | 483 kts | 120° |
| 2026-05-06 00:00 | 11.72633 | 75.50295 | 36843 ft | 483 kts | 120° |
| 2026-05-06 00:01 | 11.69269 | 75.56200 | 36849 ft | 483 kts | 120° |
| 2026-05-06 00:01 | 11.65906 | 75.62100 | 36852 ft | 482 kts | 120° |
| 2026-05-06 00:02 | 11.62531 | 75.68019 | 36856 ft | 482 kts | 120° |
| 2026-05-06 00:02 | 11.59157 | 75.73935 | 36865 ft | 482 kts | 120° |
| 2026-05-06 00:03 | 11.55790 | 75.79834 | 36875 ft | 482 kts | 120° |
| 2026-05-06 00:03 | 11.52420 | 75.85733 | 36876 ft | 483 kts | 120° |
| 2026-05-06 00:04 | 11.49046 | 75.91640 | 36876 ft | 482 kts | 120° |
| 2026-05-06 00:04 | 11.45676 | 75.97535 | 36869 ft | 483 kts | 120° |
| 2026-05-06 00:05 | 11.40605 | 76.06377 | 36874 ft | 483 kts | 120° |
| 2026-05-06 00:06 | 11.37216 | 76.12281 | 36877 ft | 483 kts | 120° |
| 2026-05-06 00:06 | 11.33846 | 76.18156 | 36884 ft | 483 kts | 120° |
| 2026-05-06 00:07 | 11.30459 | 76.24058 | 36879 ft | 483 kts | 120° |
| 2026-05-06 00:07 | 11.27072 | 76.29961 | 36892 ft | 483 kts | 120° |
| 2026-05-06 00:08 | 11.23682 | 76.35864 | 36946 ft | 483 kts | 120° |
| 2026-05-06 00:08 | 11.20299 | 76.41751 | 37011 ft | 483 kts | 120° |
| 2026-05-06 00:09 | 11.16897 | 76.47669 | 37052 ft | 483 kts | 120° |
| 2026-05-06 00:09 | 11.13515 | 76.53547 | 37051 ft | 483 kts | 120° |
| 2026-05-06 00:10 | 11.10119 | 76.59447 | 36994 ft | 483 kts | 120° |
| 2026-05-06 00:10 | 11.06742 | 76.65311 | 36943 ft | 483 kts | 120° |
| 2026-05-06 00:11 | 11.03336 | 76.71220 | 36914 ft | 484 kts | 120° |
| 2026-05-06 00:11 | 10.99930 | 76.77130 | 36898 ft | 484 kts | 120° |
| 2026-05-06 00:12 | 10.96546 | 76.82996 | 36895 ft | 484 kts | 120° |
| 2026-05-06 00:12 | 10.93137 | 76.88902 | 36890 ft | 483 kts | 120° |
| 2026-05-06 00:13 | 10.89750 | 76.94764 | 36891 ft | 482 kts | 120° |
| 2026-05-06 00:13 | 10.86349 | 77.00652 | 36886 ft | 483 kts | 120° |
| 2026-05-06 00:14 | 10.82945 | 77.06541 | 36886 ft | 483 kts | 120° |
| 2026-05-06 00:14 | 10.79562 | 77.12387 | 36894 ft | 483 kts | 120° |
| 2026-05-06 00:15 | 10.76140 | 77.18299 | 36890 ft | 483 kts | 120° |
| 2026-05-06 00:15 | 10.72752 | 77.24149 | 36894 ft | 482 kts | 120° |
| 2026-05-06 00:16 | 10.69360 | 77.30006 | 36897 ft | 481 kts | 120° |
| 2026-05-06 00:16 | 10.65957 | 77.35874 | 36897 ft | 481 kts | 120° |
| 2026-05-06 00:17 | 10.62572 | 77.41711 | 36895 ft | 481 kts | 121° |
| 2026-05-06 00:17 | 10.59185 | 77.47547 | 36892 ft | 481 kts | 121° |
| 2026-05-06 00:18 | 10.55785 | 77.53401 | 36891 ft | 481 kts | 120° |
| 2026-05-06 00:18 | 10.52394 | 77.59238 | 36885 ft | 480 kts | 121° |
| 2026-05-06 00:19 | 10.49001 | 77.65076 | 36877 ft | 480 kts | 121° |
| 2026-05-06 00:19 | 10.45611 | 77.70906 | 36882 ft | 479 kts | 121° |
| 2026-05-06 00:20 | 10.42216 | 77.76743 | 36870 ft | 479 kts | 121° |
| 2026-05-06 00:20 | 10.38848 | 77.82529 | 36879 ft | 479 kts | 121° |
| 2026-05-06 00:21 | 10.35445 | 77.88375 | 36896 ft | 479 kts | 121° |
| 2026-05-06 00:21 | 10.32065 | 77.94183 | 36918 ft | 479 kts | 121° |
| 2026-05-06 00:22 | 10.28684 | 77.99983 | 36949 ft | 479 kts | 121° |
| 2026-05-06 00:22 | 10.25294 | 78.05778 | 36967 ft | 479 kts | 121° |
| 2026-05-06 00:23 | 10.21885 | 78.11603 | 36942 ft | 478 kts | 121° |
| 2026-05-06 00:23 | 10.18513 | 78.17374 | 36896 ft | 478 kts | 121° |
| 2026-05-06 00:24 | 10.15120 | 78.23176 | 36859 ft | 478 kts | 121° |
| 2026-05-06 00:24 | 10.11738 | 78.28960 | 36835 ft | 477 kts | 121° |
| 2026-05-06 00:25 | 10.08356 | 78.34742 | 36834 ft | 477 kts | 121° |
| 2026-05-06 00:25 | 10.04960 | 78.40543 | 36826 ft | 478 kts | 121° |
| 2026-05-06 00:26 | 10.01592 | 78.46292 | 36818 ft | 478 kts | 120° |
| 2026-05-06 00:26 | 9.98182 | 78.52116 | 36814 ft | 478 kts | 120° |
| 2026-05-06 00:27 | 9.94806 | 78.57877 | 36812 ft | 477 kts | 120° |
| 2026-05-06 00:27 | 9.91417 | 78.63654 | 36817 ft | 478 kts | 120° |
| 2026-05-06 00:28 | 9.88014 | 78.69453 | 36812 ft | 477 kts | 120° |
| 2026-05-06 00:28 | 9.84640 | 78.75202 | 36809 ft | 477 kts | 120° |
| 2026-05-06 00:29 | 9.81240 | 78.80991 | 36804 ft | 478 kts | 120° |
| 2026-05-06 00:29 | 9.77857 | 78.86748 | 36806 ft | 478 kts | 120° |
| 2026-05-06 00:30 | 9.74447 | 78.92549 | 36804 ft | 479 kts | 120° |
| 2026-05-06 00:30 | 9.71057 | 78.98314 | 36801 ft | 478 kts | 120° |
| 2026-05-06 00:31 | 9.67647 | 79.04109 | 36801 ft | 477 kts | 120° |
| 2026-05-06 00:31 | 9.64260 | 79.09863 | 36799 ft | 477 kts | 120° |
| 2026-05-06 00:32 | 9.60866 | 79.15629 | 36800 ft | 477 kts | 120° |
| 2026-05-06 00:32 | 9.57480 | 79.21373 | 36792 ft | 477 kts | 120° |
| 2026-05-06 00:33 | 9.54077 | 79.27146 | 36795 ft | 476 kts | 120° |
| 2026-05-06 00:33 | 9.50694 | 79.32882 | 36798 ft | 476 kts | 120° |
| 2026-05-06 00:34 | 9.47291 | 79.38651 | 36796 ft | 476 kts | 120° |
| 2026-05-06 00:34 | 9.43899 | 79.44399 | 36795 ft | 476 kts | 120° |
| 2026-05-06 00:35 | 9.40515 | 79.50133 | 36795 ft | 476 kts | 120° |
| 2026-05-06 00:35 | 9.37126 | 79.55876 | 36795 ft | 476 kts | 121° |
| 2026-05-06 00:36 | 9.33805 | 79.61674 | 36795 ft | 476 kts | 118° |
| 2026-05-06 00:36 | 9.30992 | 79.67722 | 36798 ft | 476 kts | 112° |
| 2026-05-06 00:37 | 9.28741 | 79.74015 | 36796 ft | 476 kts | 109° |
| 2026-05-06 00:37 | 9.26640 | 79.80349 | 36804 ft | 477 kts | 109° |
| 2026-05-06 00:38 | 9.24531 | 79.86698 | 36807 ft | 477 kts | 109° |
| 2026-05-06 00:38 | 9.22405 | 79.93078 | 36814 ft | 478 kts | 109° |
| 2026-05-06 00:39 | 9.20291 | 79.99419 | 36815 ft | 477 kts | 109° |
| 2026-05-06 00:39 | 9.18163 | 80.05782 | 36819 ft | 477 kts | 109° |
| 2026-05-06 00:40 | 9.16033 | 80.12132 | 36820 ft | 477 kts | 109° |
| 2026-05-06 00:40 | 9.13873 | 80.18577 | 36824 ft | 478 kts | 109° |
| 2026-05-06 00:41 | 9.11699 | 80.25063 | 36824 ft | 478 kts | 109° |
| 2026-05-06 00:41 | 9.09581 | 80.31385 | 36824 ft | 478 kts | 109° |
| 2026-05-06 00:42 | 9.07442 | 80.37766 | 36826 ft | 479 kts | 109° |
| 2026-05-06 00:42 | 9.05312 | 80.44118 | 36830 ft | 479 kts | 109° |
| 2026-05-06 00:43 | 9.03173 | 80.50491 | 36831 ft | 479 kts | 109° |
| 2026-05-06 00:43 | 9.01037 | 80.56852 | 36831 ft | 479 kts | 109° |
| 2026-05-06 00:44 | 8.98893 | 80.63229 | 36832 ft | 480 kts | 109° |
| 2026-05-06 00:44 | 8.96753 | 80.69595 | 36830 ft | 479 kts | 109° |
| 2026-05-06 00:45 | 8.94601 | 80.75987 | 36833 ft | 479 kts | 109° |
| 2026-05-06 00:45 | 8.92465 | 80.82332 | 36833 ft | 480 kts | 109° |
| 2026-05-06 00:46 | 8.90315 | 80.88715 | 36840 ft | 481 kts | 109° |
| 2026-05-06 00:46 | 8.88171 | 80.95077 | 36844 ft | 480 kts | 109° |
| 2026-05-06 00:47 | 8.86010 | 81.01482 | 36844 ft | 480 kts | 109° |
| 2026-05-06 00:47 | 8.83859 | 81.07852 | 36845 ft | 479 kts | 109° |
| 2026-05-06 00:48 | 8.81717 | 81.14197 | 36843 ft | 480 kts | 109° |
| 2026-05-06 00:48 | 8.79563 | 81.20570 | 36842 ft | 480 kts | 109° |
| 2026-05-06 00:49 | 8.77406 | 81.26952 | 36842 ft | 480 kts | 109° |
| 2026-05-06 00:49 | 8.75251 | 81.33318 | 36842 ft | 480 kts | 108° |
| 2026-05-06 00:50 | 8.73085 | 81.39714 | 36842 ft | 480 kts | 108° |
| 2026-05-06 00:50 | 8.70932 | 81.46069 | 36838 ft | 480 kts | 108° |
| 2026-05-06 00:51 | 8.68775 | 81.52434 | 36833 ft | 480 kts | 108° |
| 2026-05-06 00:51 | 8.66623 | 81.58781 | 36828 ft | 480 kts | 108° |
| 2026-05-06 00:52 | 8.64449 | 81.65185 | 36827 ft | 481 kts | 108° |
| 2026-05-06 00:52 | 8.62284 | 81.71561 | 36825 ft | 481 kts | 108° |
| 2026-05-06 00:53 | 8.60122 | 81.77921 | 36823 ft | 481 kts | 108° |
| 2026-05-06 00:53 | 8.57952 | 81.84306 | 36822 ft | 480 kts | 108° |
| 2026-05-06 00:54 | 8.55795 | 81.90646 | 36825 ft | 480 kts | 108° |
| 2026-05-06 00:54 | 8.53631 | 81.97004 | 36822 ft | 480 kts | 108° |
| 2026-05-06 00:55 | 8.51457 | 82.03389 | 36824 ft | 480 kts | 108° |
| 2026-05-06 00:55 | 8.49295 | 82.09734 | 36824 ft | 480 kts | 108° |
| 2026-05-06 00:56 | 8.47124 | 82.16101 | 36824 ft | 481 kts | 108° |
| 2026-05-06 00:56 | 8.44949 | 82.22474 | 36824 ft | 480 kts | 108° |
| 2026-05-06 00:57 | 8.42781 | 82.28825 | 36823 ft | 480 kts | 108° |
| 2026-05-06 00:57 | 8.40604 | 82.35198 | 36823 ft | 480 kts | 108° |
| 2026-05-06 00:58 | 8.38435 | 82.41546 | 36824 ft | 480 kts | 108° |
| 2026-05-06 00:58 | 8.36276 | 82.47862 | 36825 ft | 479 kts | 108° |
| 2026-05-06 00:59 | 8.34094 | 82.54242 | 36828 ft | 480 kts | 108° |
| 2026-05-06 00:59 | 8.31926 | 82.60575 | 36831 ft | 480 kts | 108° |
| 2026-05-06 01:00 | 8.29740 | 82.66959 | 36834 ft | 480 kts | 108° |
| 2026-05-06 01:00 | 8.27571 | 82.73291 | 36836 ft | 479 kts | 108° |
| 2026-05-06 01:01 | 8.25404 | 82.79620 | 36841 ft | 479 kts | 108° |
| 2026-05-06 01:01 | 8.23226 | 82.85976 | 36843 ft | 479 kts | 108° |
| 2026-05-06 01:02 | 8.21121 | 82.92357 | 36842 ft | 479 kts | 107° |
| 2026-05-06 01:02 | 8.19094 | 82.98734 | 36842 ft | 479 kts | 107° |
| 2026-05-06 01:03 | 8.17067 | 83.05102 | 36843 ft | 479 kts | 107° |
| 2026-05-06 01:03 | 8.15028 | 83.11488 | 36844 ft | 479 kts | 107° |
| 2026-05-06 01:04 | 8.12990 | 83.17858 | 36844 ft | 478 kts | 107° |
| 2026-05-06 01:04 | 8.10946 | 83.24240 | 36843 ft | 477 kts | 107° |
| 2026-05-06 01:05 | 8.08916 | 83.30580 | 36844 ft | 478 kts | 107° |
| 2026-05-06 01:05 | 8.06869 | 83.36964 | 36844 ft | 478 kts | 107° |
| 2026-05-06 01:06 | 8.04821 | 83.43348 | 36844 ft | 478 kts | 107° |
| 2026-05-06 01:06 | 8.02783 | 83.49696 | 36844 ft | 477 kts | 107° |
| 2026-05-06 01:07 | 8.00742 | 83.56051 | 36844 ft | 477 kts | 107° |
| 2026-05-06 01:07 | 7.98704 | 83.62392 | 36839 ft | 477 kts | 107° |
| 2026-05-06 01:08 | 7.96662 | 83.68741 | 36834 ft | 477 kts | 107° |
| 2026-05-06 01:08 | 7.94622 | 83.75083 | 36827 ft | 477 kts | 107° |
| 2026-05-06 01:09 | 7.92581 | 83.81426 | 36825 ft | 477 kts | 107° |
| 2026-05-06 01:09 | 7.90531 | 83.87790 | 36823 ft | 476 kts | 107° |
| 2026-05-06 01:10 | 7.88492 | 83.94116 | 36823 ft | 476 kts | 107° |
| 2026-05-06 01:10 | 7.86450 | 84.00450 | 36823 ft | 476 kts | 107° |
| 2026-05-06 01:11 | 7.84735 | 84.05768 | 36821 ft | 476 kts | 107° |
| 2026-05-06 01:11 | 7.82695 | 84.12083 | 36821 ft | 476 kts | 107° |
| 2026-05-06 01:12 | 7.80643 | 84.18436 | 36820 ft | 476 kts | 107° |
| 2026-05-06 01:12 | 7.78604 | 84.24747 | 36821 ft | 475 kts | 107° |